Detall de PIREP

Printer-friendly versionPDF version

[2013/01/05 07:36:00]
Flight IATA:CT2109
Pilot Number:041
Company ICAO:CAT
Aircraft Type:A320/E
PAX:110
Departing Airport: LEMG
Destination Airport: LEVC
Alternate Airport:LEBL
Online: VATSIM
Route:VIVAS1C VIBAS UM985 ASTRO DCT
Flight Level:F300
No Slew and time accel
No pause
Crash detect
Detect pilot in Cockpit between each 30 and 45 minutes
07:36 Zero fuel Weight: 134491 Lbs, Fuel Weight: 10280 Lbs
07:36 VATSIM:LEMG 050700Z 29009KT 9999 FEW015 05/05 Q1034 NOSIG
07:36 VATSIM:LEVC 050700Z 26003KT CAVOK 06/01 Q1031 NOSIG
07:36 VOICE CATALONIAN
07:38 Parking Brakes off
07:43 Take-off
07:43 Take off Weight: 143886 Lbs
07:43 Wind: 289º @ 008 Knots Heading: 310º
07:43 POS N36º 40´ 44´´ W004º 30´ 17´´
07:43 Gear Up: 186 Knots
07:43 Flaps:3 at 186 Knots
07:43 Flaps:2 at 196 Knots
07:43 Flaps:1 at 198 Knots
07:44 Flaps:0 at 232 Knots
07:57 TOC
07:57 Fuel Weight: 5801 Lb
07:58 Wind:222º@012 Knots Heading: 053º Ground Speed: 452 Knots Altitude 30603 ft
08:12 TOD
08:12 Fuel Weight: 4057 Lb
08:13 Wind:209º@000 Knots Heading: 052º Ground Speed: 422 Knots Altitude 30026 ft
08:28 Wind:246º@009 Knots Heading: 070º Ground Speed: 270 Knots Altitude 6994 ft
08:34 Flaps:1 at 205 Knots
08:34 Flaps:2 at 200 Knots
08:34 Flaps:3 at 200 Knots
08:35 Flaps:2 at 186 Knots
08:35 Flaps:3 at 185 Knots
08:35 Flaps:4 at 183 Knots
08:35 Gear Down: 157 Knots
08:35 Flaps:5 at 145 Knots
08:37 TouchDown:Rate -156 ft/min Speed: 127 Knots
08:37 Flaps:3 at 50 Knots
08:37 Flaps:0 at 41 Knots
08:37 VATSIM:LEVC 050800Z 25009KT CAVOK 07/01 Q1031 NOSIG
08:37 Land
08:37 Wind:250º@009 Knots
08:37 Heading: 291º
08:37 Flight Duration: 00:54
08:37 Landing Weight: 136791 Lbs
08:37 POS N39º 29´ 16´´ W000º 28´ 40´´
08:39 Parking brakes on
08:39 Block to Block Duration: 01:01
08:39 Final Fuel: 2059 Lbls
08:39 Spent Fuel: 8220 Lbls
08:39 Flight Length: 310 NM
08:39 TOD Land Length: 116 NM

Exportar CSV

Powered by Drupal - Modified by Danger4k